PDT,Max TemperatureF,Mean TemperatureF,Min TemperatureF,Max Dew PointF,MeanDew PointF,Min DewpointF,Max Humidity, Mean Humidity, Min Humidity, Max Sea Level PressureIn, Mean Sea Level PressureIn, Min Sea Level PressureIn, Max VisibilityMiles, Mean VisibilityMiles, Min VisibilityMiles, Max Wind SpeedMPH, Mean Wind SpeedMPH, Max Gust SpeedMPH,PrecipitationIn, CloudCover, Events, WindDirDegrees
2013-9-1,92,76,59,55,53,46,78,52,25,29.93,29.84,29.74,10,10,10,22,8,29,0.00,0,,197
2013-9-2,96,81,65,54,47,39,63,39,14,29.89,29.81,29.73,10,10,10,28,10,35,0.00,1,,161
2013-9-3,92,77,61,52,48,42,67,43,19,29.93,29.87,29.81,10,10,10,29,7,39,T,4,Rain,176
2013-9-4,96,75,53,50,45,40,77,46,14,30.01,29.92,29.83,10,10,10,24,9,30,0.00,0,,186
2013-9-5,98,77,56,46,38,31,57,34,10,29.96,29.86,29.80,10,10,10,23,7,29,0.00,0,,158
2013-9-6,97,75,52,37,31,21,50,29,7,29.95,29.86,29.77,10,10,10,20,6,25,0.00,0,,290
2013-9-7,95,73,51,35,30,21,50,29,7,29.94,29.86,29.78,10,10,9,17,5,24,0.00,0,,191
2013-9-8,94,74,54,51,33,26,46,28,9,29.94,29.83,29.72,10,10,7,28,7,37,0.00,0,,197
2013-9-9,94,76,57,50,34,20,64,36,7,29.88,29.78,29.66,10,10,10,18,6,23,0.00,0,,342
2013-9-10,93,73,52,38,32,22,45,27,8,29.84,29.79,29.70,10,10,10,24,7,32,0.00,0,,291
2013-9-11,91,71,51,38,34,25,50,30,10,29.95,29.87,29.83,10,10,10,21,5,24,0.00,0,,176
2013-9-12,90,74,58,47,39,35,44,30,15,29.92,29.86,29.77,10,10,10,18,5,22,T,3,Rain,320
2013-9-13,93,76,59,48,43,37,62,39,15,29.88,29.79,29.68,10,10,10,20,6,25,0.00,2,,334
2013-9-14,93,75,56,45,42,36,61,38,14,29.82,29.73,29.65,10,10,10,20,4,24,0.00,1,,210
2013-9-15,95,75,54,43,36,31,55,33,10,29.79,29.74,29.67,10,10,10,21,6,26,0.00,0,,199
2013-9-16,94,72,49,35,32,29,48,29,10,29.86,29.76,29.67,10,10,10,23,10,32,0.00,0,,140
2013-9-17,93,70,46,32,22,4,45,25,4,29.84,29.66,29.52,10,10,10,24,9,32,0.00,0,,306
2013-9-18,84,70,55,33,22,2,41,23,5,29.89,29.80,29.70,10,10,10,24,10,32,0.00,0,,336
2013-9-19,88,65,42,26,17,6,43,24,5,29.97,29.86,29.78,10,10,10,16,7,20,0.00,0,,250
2013-9-20,91,67,42,20,16,9,36,21,6,29.86,29.74,29.63,10,10,10,28,8,36,0.00,0,,230
2013-9-21,85,62,39,38,23,15,47,28,8,29.71,29.63,29.52,10,10,10,31,12,40,0.00,1,,269
2013-9-22,79,62,45,35,24,16,56,33,9,29.88,29.78,29.66,10,10,10,28,11,36,0.00,0,,349
2013-9-23,84,61,38,31,26,19,55,32,9,30.00,29.92,29.86,10,10,10,20,7,24,0.00,0,,212
2013-9-24,87,65,42,28,26,21,53,32,10,29.93,29.80,29.62,10,10,10,24,7,31,0.00,0,,296
2013-9-25,79,64,48,26,15,3,39,23,6,29.69,29.54,29.45,10,10,10,31,17,45,0.00,0,,338
2013-9-26,64,53,42,27,22,14,53,34,14,29.98,29.79,29.65,10,10,10,28,15,36,0.00,1,,360
2013-9-27,70,52,34,26,21,14,59,36,12,30.11,30.05,29.98,10,10,10,15,6,30,0.00,0,,336
2013-9-28,78,55,31,19,17,14,51,30,9,30.15,30.08,29.99,10,10,10,18,7,24,0.00,0,,225
2013-9-29,75,56,36,29,20,17,44,28,12,30.11,30.03,29.96,10,10,10,10,3,10,0.00,0,,321
2013-9-30,89,64,38,24,19,12,52,29,6,30.00,29.90,29.80,10,10,10,10,4,14,0.00,0,,357